McCall, ID

4:01 AM MST on February 07, 2016 (GMT -0700)
ITD | | Change Station
CLOSE
Current Station
Personal Weather Station
Location: McCall, ID
Elevation: 5416 ft
Nearby Weather Stations

Elev 5416 ft 44.93 °N, 116.16 °W | Updated 1 hour ago

Light Freezing Fog
Freezing Fog
27.0 °F
Feels Like 27.0 °F
N
1.0
Wind Variable Wind from ESE
Gusts 2.0 mph

Today
High -- | Low -- °F
--% Chance of Precip.
Yesterday
High -- | Low -- °F
Precip. -- in
Pressure 30.56 in
Visibility 0.2 miles
Clouds
Dew Point 27.0 °F
Humidity 100%
Rainfall in
Snow Depth Not available.
7:57 AM 6:00 PM
Waning Crescent, 2% visible
METAR KMYL 071051Z AUTO 00000KT 1/4SM FZFG VV001 M07/M08 A3044 RMK AO2 SLP347 T10721083
Pressure 30.56 in
Visibility 0.2 miles
Clouds
Dew Point 27.0 °F
Humidity 100%
Rainfall in
Snow Depth Not available.
7:57 AM 6:00 PM
Waning Crescent, 2% visible
METAR KMYL 071051Z AUTO 00000KT 1/4SM FZFG VV001 M07/M08 A3044 RMK AO2 SLP347 T10721083

10-Day Weather Forecast

Almanac

Astronomy

Feb. 07, 2016 Rise Set
Actual Time
Civil Twilight
Nautical Twilight
Astronomical Twilight
Moon
Length of Visible Light
Length of Day
Tomorrow will be .
, % of the Moon is Illuminated

Today's Extremes

State Highs State Lows

Community

WunderPhotos

Upload Photos

1,891,170 photos uploaded!

WunderBlog® & News

Nearby

Air Quality

  Air Quality AQ Index Pollutant
Not available.

Snow Depth

Station Depth Elevation

Earthquake Activity

City Distance Mag. Time & Date
Minimum magnitude displayed is 2.5.

Coastal Water Temperatures

Place Temperature

Stations

Nearby Weather Stations

Station Location Temp. Windchill Dew Point Humidity Wind Precip. Elev Updated Type
                   

Watches & Warnings

There are currently no watches in effect.